Daily Summary for September 17, 2020 Units:  English    Metric   Both
Daily Weekly Monthly Yearly
  High: Low: Average:
Temperature: 73.8 °F 44.2 °F 57.9 °F
Dew Point: 56.5 °F 41.4 °F 48.7 °F
Humidity: 91.5% 49.7% 73%
Wind Speed: 10.2mph 0mph 3.7mph
Wind Gust: 23mph - -
Wind- - SSE
Pressure: 30.4 in 30.1 in -
Precipitation: 0 in    
 
 
Tabular Data for September 17, 2020
Time Temperature Dew Point Pressure Wind Wind Speed Wind Gust Humidity Rainfall Rate (Hourly) solar
00:04 48.4 °F 44.6 °F 30.1 in NE 0.7 mph 2 mph 86.6% 0 in 0 W/m2
00:09 49.1 °F 45 °F 30.1 in NE 1 mph 2 mph 85.8% 0 in 0 W/m2
00:14 49.5 °F 44.8 °F 30.1 in NE 0.6 mph 2 mph 84.3% 0 in 0 W/m2
00:19 49.1 °F 44.6 °F 30.1 in Calm   2 mph 84.2% 0 in 0 W/m2
00:24 49.3 °F 45 °F 30.1 in Calm     84.8% 0 in 0 W/m2
00:29 49.8 °F 45.1 °F 30.1 in Calm     84% 0 in 0 W/m2
00:34 48.9 °F 43.9 °F 30.1 in Calm   1 mph 83% 0 in 0 W/m2
00:39 47.7 °F 43.2 °F 30.1 in Calm   1 mph 84.2% 0 in 0 W/m2
00:44 48.4 °F 44.6 °F 30.1 in Calm   1 mph 87% 0 in 0 W/m2
00:49 48.7 °F 44.8 °F 30.1 in Calm   3 mph 86.1% 0 in 0 W/m2
00:54 48.7 °F 44.6 °F 30.1 in NE 1 mph 3 mph 85.1% 0 in 0 W/m2
00:59 48.7 °F 44.6 °F 30.1 in NE 1 mph 3 mph 85.5% 0 in 0 W/m2
01:04 48.9 °F 44.6 °F 30.1 in Calm   2 mph 85.3% 0 in 0 W/m2
01:09 48.4 °F 44.2 °F 30.1 in Calm   2 mph 85.1% 0 in 0 W/m2
01:14 48.2 °F 44.1 °F 30.1 in Calm   2 mph 85.3% 0 in 0 W/m2
01:19 47.8 °F 43.9 °F 30.1 in Calm   2 mph 85.6% 0 in 0 W/m2
01:24 47.7 °F 43.5 °F 30.1 in NE 0.4 mph 2 mph 85.7% 0 in 0 W/m2
01:29 47.1 °F 43 °F 30.1 in NE 1 mph 2 mph 85.5% 0 in 0 W/m2
01:34 46.9 °F 43.3 °F 30.1 in NE 1 mph 2 mph 87% 0 in 0 W/m2
01:39 46.8 °F 43 °F 30.1 in NE 1 mph 3 mph 86.3% 0 in 0 W/m2
01:44 46.9 °F 43.3 °F 30.1 in NE 1 mph 3 mph 87.4% 0 in 0 W/m2
01:49 46.8 °F 43 °F 30.1 in NE 1 mph 3 mph 86.9% 0 in 0 W/m2
01:54 46.8 °F 43.2 °F 30.1 in NE 1 mph 2 mph 87.5% 0 in 0 W/m2
01:59 46.9 °F 43.5 °F 30.1 in NE 1 mph 2 mph 87.9% 0 in 0 W/m2
02:04 47.1 °F 43.7 °F 30.1 in NE 0.4 mph 2 mph 87.7% 0 in 0 W/m2
02:09 47.3 °F 43.7 °F 30.1 in Calm   2 mph 87.3% 0 in 0 W/m2
02:14 46.4 °F 42.6 °F 30.1 in Calm   2 mph 86.6% 0 in 0 W/m2
02:19 45.9 °F 42.3 °F 30.1 in Calm   1 mph 87% 0 in 0 W/m2
02:24 45.9 °F 42.4 °F 30.1 in Calm     87.8% 0 in 0 W/m2
02:29 46.4 °F 43 °F 30.1 in Calm     88% 0 in 0 W/m2
02:34 46.6 °F 43.2 °F 30.1 in Calm     88% 0 in 0 W/m2
02:39 46.4 °F 43 °F 30.1 in Calm   1 mph 88.2% 0 in 0 W/m2
02:44 46.4 °F 43.2 °F 30.1 in Calm   1 mph 88.3% 0 in 0 W/m2
02:49 45.9 °F 42.6 °F 30.1 in Calm   2 mph 88% 0 in 0 W/m2
02:54 45.3 °F 41.9 °F 30.1 in NE 0.8 mph 3 mph 88.1% 0 in 0 W/m2
02:59 45.5 °F 42.3 °F 30.1 in NE 1.8 mph 3 mph 89% 0 in 0 W/m2
03:04 45.7 °F 42.6 °F 30.1 in NE 2 mph 3 mph 89% 0 in 0 W/m2
03:09 46 °F 43 °F 30.1 in NE 2 mph 3 mph 89% 0 in 0 W/m2
03:14 46.2 °F 43.2 °F 30.1 in ENE 2 mph 3 mph 89% 0 in 0 W/m2
03:19 46.6 °F 43.5 °F 30.1 in ENE 2 mph 3 mph 89% 0 in 0 W/m2
03:24 46.9 °F 43.5 °F 30.1 in ENE 1.4 mph 3 mph 88.5% 0 in 0 W/m2
03:29 46.6 °F 43.2 °F 30.1 in ENE 1 mph 3 mph 88% 0 in 0 W/m2
03:34 46.4 °F 43.2 °F 30.1 in ENE 1 mph 3 mph 88% 0 in 0 W/m2
03:39 45.9 °F 42.4 °F 30.1 in ENE 1 mph 3 mph 87.8% 0 in 0 W/m2
03:44 45.1 °F 41.9 °F 30.1 in ENE 1 mph 3 mph 88% 0 in 0 W/m2
03:49 45 °F 41.9 °F 30.1 in East 1.8 mph 4 mph 88.7% 0 in 0 W/m2
03:54 45 °F 41.9 °F 30.1 in East 2 mph 4 mph 89% 0 in 0 W/m2
03:59 44.4 °F 41.4 °F 30.1 in East 2 mph 4 mph 88.6% 0 in 0 W/m2
04:04 44.4 °F 41.4 °F 30.1 in East 2 mph 4 mph 89.1% 0 in 0 W/m2
04:09 44.4 °F 41.5 °F 30.1 in East 2 mph 4 mph 89.5% 0 in 0 W/m2
04:14 44.2 °F 41.5 °F 30.1 in East 2 mph 4 mph 90% 0 in 0 W/m2
04:19 44.2 °F 41.5 °F 30.1 in East 2 mph 3 mph 90% 0 in 0 W/m2
04:24 44.6 °F 41.9 °F 30.1 in East 2 mph 3 mph 90.5% 0 in 0 W/m2
04:29 44.8 °F 42.1 °F 30.1 in East 1.4 mph 3 mph 90.7% 0 in 0 W/m2
04:34 44.8 °F 42.1 °F 30.1 in East 1 mph 3 mph 90.2% 0 in 0 W/m2
04:39 45.3 °F 42.8 °F 30.1 in East 1 mph 3 mph 91.4% 0 in 0 W/m2
04:44 45.9 °F 43.5 °F 30.1 in East 1 mph 3 mph 91.4% 0 in 0 W/m2
04:49 46 °F 43.7 °F 30.1 in East 1 mph 3 mph 91.2% 0 in 0 W/m2
04:54 46 °F 43.5 °F 30.1 in East 1 mph 3 mph 91% 0 in 0 W/m2
04:59 46.2 °F 43.7 °F 30.1 in East 1 mph 3 mph 90.8% 0 in 0 W/m2
05:04 45.5 °F 42.8 °F 30.1 in East 1 mph 3 mph 90.3% 0 in 0 W/m2
05:09 45.9 °F 43.2 °F 30.1 in East 0.2 mph 2 mph 90.8% 0 in 0 W/m2
05:14 45.7 °F 43 °F 30.1 in East 0.2 mph 2 mph 90.4% 0 in 0 W/m2
05:19 45 °F 42.1 °F 30.1 in Calm   2 mph 90% 0 in 0 W/m2
05:24 44.4 °F 41.7 °F 30.1 in East 1 mph 3 mph 90% 0 in 0 W/m2
05:29 44.2 °F 41.5 °F 30.1 in East 1 mph 3 mph 90.2% 0 in 0 W/m2
05:34 44.2 °F 41.7 °F 30.1 in East 1 mph 3 mph 91% 0 in 0 W/m2
05:39 44.4 °F 41.9 °F 30.1 in East 1.2 mph 3 mph 91% 0 in 0 W/m2
05:44 45 °F 42.4 °F 30.1 in East 1.2 mph 3 mph 91% 0 in 0 W/m2
05:49 45.1 °F 42.6 °F 30.1 in East 1 mph 3 mph 91% 0 in 0 W/m2
05:54 45.1 °F 42.6 °F 30.1 in East 1 mph 3 mph 91% 0 in 0 W/m2
05:59 45 °F 42.6 °F 30.1 in East 1.4 mph 3 mph 91% 0 in 0 W/m2
06:04 45.5 °F 43.2 °F 30.1 in East 2 mph 3 mph 91.4% 0 in 0 W/m2
06:09 46.4 °F 44.1 °F 30.1 in East 2 mph 3 mph 91.5% 0 in 7 W/m2
06:14 46.6 °F 43.9 °F 30.1 in East 1.2 mph 3 mph 90.7% 0 in 11 W/m2
06:19 45.9 °F 43 °F 30.1 in East 1 mph 4 mph 89.8% 0 in 14 W/m2
06:24 45.7 °F 43.2 °F 30.1 in East 1.2 mph 4 mph 90.7% 0 in 19 W/m2
06:29 46.4 °F 43.9 °F 30.1 in East 1.6 mph 4 mph 90.7% 0 in 21 W/m2
06:34 46.8 °F 44.1 °F 30.1 in East 1 mph 3 mph 90.3% 0 in 25 W/m2
06:39 46.4 °F 43.3 °F 30.1 in East 1 mph 3 mph 89.2% 0 in 26 W/m2
06:44 45.9 °F 42.8 °F 30.1 in East 1 mph 3 mph 88.8% 0 in 30 W/m2
06:49 45.7 °F 42.8 °F 30.1 in ESE 1 mph 3 mph 89.8% 0 in 30 W/m2
06:54 46.2 °F 43.5 °F 30.1 in ESE 1 mph 3 mph 90.1% 0 in 46 W/m2
06:59 46.4 °F 43.3 °F 30.1 in ESE 1 mph 3 mph 89.3% 0 in 60 W/m2
07:04 46.4 °F 43.5 °F 30.2 in ESE 1.4 mph 3 mph 89.8% 0 in 65 W/m2
07:09 47.5 °F 44.6 °F 30.2 in ESE 1 mph 3 mph 89.6% 0 in 83 W/m2
07:14 48.6 °F 45.7 °F 30.2 in ESE 0.8 mph 3 mph 89.6% 0 in 84 W/m2
07:19 49.3 °F 45.9 °F 30.2 in ESE 0.4 mph 2 mph 88.2% 0 in 141 W/m2
07:24 48.9 °F 45.5 °F 30.2 in Calm   2 mph 87.7% 0 in 95 W/m2
07:29 49.5 °F 46.2 °F 30.2 in Calm   2 mph 88.3% 0 in 202 W/m2
07:34 50.2 °F 46.8 °F 30.2 in Calm   2 mph 87.8% 0 in 225 W/m2
07:39 50.9 °F 47.3 °F 30.2 in ESE 0.4 mph 2 mph 87.5% 0 in 276 W/m2
07:44 51.6 °F 47.8 °F 30.2 in ESE 1 mph 2 mph 86.8% 0 in 281 W/m2
07:49 52.5 °F 48.4 °F 30.2 in ESE 0.6 mph 2 mph 85.7% 0 in 292 W/m2
07:54 53.2 °F 48.9 °F 30.2 in Calm   2 mph 85.5% 0 in 285 W/m2
07:59 53.8 °F 49.3 °F 30.2 in Calm   1 mph 84.8% 0 in 315 W/m2
08:04 54.3 °F 49.8 °F 30.2 in Calm   2 mph 84.7% 0 in 403 W/m2
08:09 55.4 °F 50.7 °F 30.2 in Calm   2 mph 84.2% 0 in 432 W/m2
08:14 56.8 °F 51.4 °F 30.2 in Calm   3 mph 82.2% 0 in 425 W/m2
08:19 57.9 °F 51.8 °F 30.2 in Calm   3 mph 80.1% 0 in 320 W/m2
08:24 58.6 °F 52 °F 30.2 in SE 1 mph 3 mph 78.5% 0 in 424 W/m2
08:29 59.7 °F 52.5 °F 30.2 in East 1.2 mph 4 mph 76.8% 0 in 439 W/m2
08:34 60.8 °F 52.2 °F 30.2 in ENE 1.8 mph 4 mph 73.1% 0 in 547 W/m2
08:39 61.7 °F 51.8 °F 30.2 in ENE 2 mph 4 mph 70% 0 in 547 W/m2
08:44 61.5 °F 51.3 °F 30.2 in ENE 1.2 mph 4 mph 69.3% 0 in 513 W/m2
08:49 62.1 °F 52.2 °F 30.2 in NE 1 mph 3 mph 70.3% 0 in 297 W/m2
08:54 62.1 °F 51.8 °F 30.2 in NNE 1 mph 4 mph 69.2% 0 in 585 W/m2
08:59 62.8 °F 52.3 °F 30.2 in North 1.8 mph 4 mph 69% 0 in 631 W/m2
09:04 63.3 °F 52 °F 30.2 in North 2.4 mph 9 mph 66.5% 0 in 629 W/m2
09:09 64 °F 51.6 °F 30.2 in NNW 4.4 mph 13 mph 64.1% 0 in 629 W/m2
09:14 64.4 °F 50.9 °F 30.2 in NNW 6 mph 13 mph 61.7% 0 in 561 W/m2
09:19 64.6 °F 51.4 °F 30.2 in NW 6 mph 13 mph 62.2% 0 in 606 W/m2
09:24 65.5 °F 52 °F 30.2 in NNW 6 mph 13 mph 61.6% 0 in 800 W/m2
09:29 65.5 °F 51.8 °F 30.2 in North 5.6 mph 13 mph 61.3% 0 in 780 W/m2
09:34 65.5 °F 52 °F 30.2 in North 5.6 mph 12 mph 61.5% 0 in 687 W/m2
09:39 65.8 °F 51.6 °F 30.2 in NNW 5 mph 12 mph 60.3% 0 in 687 W/m2
09:44 65.8 °F 51.8 °F 30.2 in NNW 5 mph 12 mph 60.7% 0 in 677 W/m2
09:49 65.8 °F 51.4 °F 30.2 in North 5.8 mph 13 mph 59.6% 0 in 763 W/m2
09:54 65.8 °F 51.8 °F 30.2 in North 7 mph 13 mph 60.4% 0 in 944 W/m2
09:59 66.7 °F 52.3 °F 30.2 in North 6.4 mph 13 mph 59.8% 0 in 944 W/m2
10:04 66.9 °F 52 °F 30.2 in North 5.8 mph 13 mph 58.5% 0 in 944 W/m2
10:09 66 °F 51.6 °F 30.2 in NNW 6.4 mph 14 mph 59.8% 0 in 283 W/m2
10:14 65.8 °F 51.6 °F 30.2 in North 7 mph 14 mph 60.2% 0 in 768 W/m2
10:19 66.7 °F 52.3 °F 30.2 in North 6.6 mph 14 mph 60.1% 0 in 747 W/m2
10:24 67.5 °F 52.9 °F 30.2 in North 5 mph 11 mph 59.3% 0 in 779 W/m2
10:29 67.5 °F 52 °F 30.2 in NNW 5.4 mph 15 mph 57.5% 0 in 766 W/m2
10:34 67.1 °F 52 °F 30.2 in NNW 7.6 mph 15 mph 58.3% 0 in 824 W/m2
10:39 67.8 °F 52.9 °F 30.2 in NNW 7.8 mph 15 mph 59% 0 in 824 W/m2
10:44 68.4 °F 53.1 °F 30.2 in NNW 7 mph 16 mph 58.2% 0 in 823 W/m2
10:49 68.7 °F 53.4 °F 30.2 in NNW 7 mph 16 mph 58.4% 0 in 830 W/m2
10:54 69.8 °F 53.8 °F 30.2 in North 6.4 mph 16 mph 56.9% 0 in 830 W/m2
10:59 69.8 °F 53.4 °F 30.2 in NNW 5.8 mph 19 mph 56.3% 0 in 745 W/m2
11:04 69.3 °F 52.5 °F 30.2 in NW 7.6 mph 19 mph 55.4% 0 in 803 W/m2
11:09 69.1 °F 53.1 °F 30.2 in NW 9.8 mph 19 mph 56.7% 0 in 928 W/m2
11:14 70.3 °F 53.6 °F 30.2 in NW 8.8 mph 19 mph 55.3% 0 in 932 W/m2
11:19 70.3 °F 53.4 °F 30.2 in NW 8.8 mph 18 mph 55% 0 in 874 W/m2
11:24 70.5 °F 53.6 °F 30.2 in NW 9.6 mph 18 mph 54.9% 0 in 867 W/m2
11:29 70.9 °F 53.4 °F 30.2 in NW 9.2 mph 20 mph 54% 0 in 947 W/m2
11:34 71.1 °F 53.4 °F 30.2 in NNW 10.2 mph 20 mph 53.8% 0 in 947 W/m2
11:39 70.9 °F 53.2 °F 30.2 in NNW 9.8 mph 20 mph 53.8% 0 in 737 W/m2
11:44 71.1 °F 53.8 °F 30.2 in NNW 8.8 mph 18 mph 54.5% 0 in 912 W/m2
11:49 72.3 °F 54.5 °F 30.1 in NNW 7.6 mph 18 mph 53.3% 0 in 856 W/m2
11:54 72.1 °F 54 °F 30.1 in NNW 7.8 mph 17 mph 53% 0 in 900 W/m2
11:59 71.6 °F 53.8 °F 30.1 in NNW 9.4 mph 19 mph 53.2% 0 in 921 W/m2
12:04 71.2 °F 53.2 °F 30.1 in NNW 10 mph 19 mph 53% 0 in 780 W/m2
12:09 71.8 °F 53.8 °F 30.1 in NNW 8.8 mph 19 mph 53.3% 0 in 747 W/m2
12:14 71.4 °F 53.1 °F 30.1 in NNW 8.8 mph 23 mph 52.3% 0 in 668 W/m2
12:19 70.9 °F 53.1 °F 30.1 in NNW 9.8 mph 23 mph 53.3% 0 in 643 W/m2
12:24 70.7 °F 52.5 °F 30.1 in NNW 9.2 mph 23 mph 52.7% 0 in 631 W/m2
12:29 70.7 °F 53.2 °F 30.1 in NW 7.8 mph 19 mph 54% 0 in 821 W/m2
12:34 71.2 °F 53.1 °F 30.1 in NNW 8.4 mph 19 mph 52.8% 0 in 838 W/m2
12:39 72 °F 53.4 °F 30.1 in NNW 9 mph 19 mph 52% 0 in 766 W/m2
12:44 71.8 °F 53.1 °F 30.1 in NNW 8 mph 18 mph 51.8% 0 in 710 W/m2
12:49 71.8 °F 53.6 °F 30.1 in NNW 7 mph 18 mph 52.8% 0 in 749 W/m2
12:54 71.8 °F 54 °F 30.1 in North 7.4 mph 15 mph 53.3% 0 in 749 W/m2
12:59 71.4 °F 53.2 °F 30.1 in NNW 8.6 mph 17 mph 52.7% 0 in 566 W/m2
13:04 71.1 °F 53.2 °F 30.1 in NNW 8.4 mph 17 mph 53.5% 0 in 483 W/m2
13:09 71.1 °F 53.6 °F 30.1 in NNW 7.6 mph 17 mph 53.8% 0 in 504 W/m2
13:14 71.1 °F 53.2 °F 30.1 in North 7.6 mph 17 mph 53.1% 0 in 459 W/m2
13:15 70.9 °F 53.2 °F 30.1 in NNW 9 mph 17 mph 53.7% 0 in 366 W/m2
14:04 73 °F 54.1 °F 30.1 in NW 9 mph 17 mph 51.8% 0 in 633 W/m2
14:09 73.2 °F 53.8 °F 30.1 in NW 8.8 mph 18 mph 50.5% 0 in 696 W/m2
14:14 73 °F 53.6 °F 30.1 in NW 9 mph 18 mph 50.5% 0 in 707 W/m2
14:19 73.4 °F 54.1 °F 30.1 in NW 8.8 mph 18 mph 50.7% 0 in 684 W/m2
14:24 73.8 °F 53.8 °F 30.1 in NW 7.4 mph 15 mph 49.7% 0 in 666 W/m2
14:29 73.4 °F 54 °F 30.1 in NW 7.8 mph 20 mph 50.6% 0 in 656 W/m2
14:34 73.6 °F 54 °F 30.1 in NW 9 mph 20 mph 50.3% 0 in 652 W/m2
14:39 73.8 °F 54 °F 30.1 in NNW 9.2 mph 20 mph 50% 0 in 610 W/m2
14:44 73.2 °F 54 °F 30.1 in NNW 9 mph 18 mph 50.8% 0 in 499 W/m2
14:49 73.4 °F 54.7 °F 30.1 in NW 8.2 mph 18 mph 51.9% 0 in 497 W/m2
14:54 73.6 °F 54.7 °F 30.1 in NW 7.2 mph 18 mph 51.5% 0 in 394 W/m2
14:59 73.6 °F 54.5 °F 30.1 in NNW 7 mph 17 mph 51.5% 0 in 552 W/m2
15:04 73.6 °F 54.5 °F 30.1 in NNW 7 mph 14 mph 51.4% 0 in 552 W/m2
15:09 73.6 °F 54.9 °F 30.1 in NNW 6.8 mph 14 mph 52.2% 0 in 403 W/m2
15:14 73.2 °F 54.5 °F 30.1 in NNW 6.6 mph 14 mph 52% 0 in 466 W/m2
15:19 72.5 °F 54.7 °F 30.1 in NW 7.4 mph 15 mph 53.5% 0 in 420 W/m2
15:24 73 °F 55.6 °F 30.1 in NW 7 mph 15 mph 54.5% 0 in 327 W/m2
15:29 72.5 °F 54.5 °F 30.1 in NNW 6 mph 14 mph 53% 0 in 304 W/m2
15:34 72.3 °F 54.1 °F 30.1 in NW 7 mph 14 mph 52.6% 0 in 301 W/m2
15:39 72.5 °F 54.5 °F 30.1 in NW 6.6 mph 14 mph 53.3% 0 in 292 W/m2
15:44 72.5 °F 54.3 °F 30.1 in NNW 6 mph 13 mph 52.8% 0 in 311 W/m2
15:49 72.5 °F 54.1 °F 30.1 in NNW 7 mph 13 mph 52.5% 0 in 330 W/m2
15:54 73 °F 54.9 °F 30.1 in NNW 6 mph 13 mph 52.8% 0 in 322 W/m2
15:59 73 °F 54.7 °F 30.1 in North 5 mph 13 mph 52.8% 0 in 294 W/m2
16:04 72.1 °F 54.7 °F 30.1 in NNW 5.4 mph 12 mph 54.1% 0 in 255 W/m2
16:09 72 °F 54.9 °F 30.1 in NW 5 mph 10 mph 54.8% 0 in 207 W/m2
16:14 72 °F 54.7 °F 30.1 in NNW 4.2 mph 9 mph 54.7% 0 in 260 W/m2
16:19 72 °F 55 °F 30.1 in NNW 4 mph 9 mph 55.3% 0 in 251 W/m2
16:24 71.8 °F 54.5 °F 30.1 in NW 4 mph 8 mph 54.3% 0 in 176 W/m2
16:29 71.6 °F 54.9 °F 30.1 in NNW 4 mph 8 mph 55.5% 0 in 158 W/m2
16:34 71.8 °F 55 °F 30.1 in North 3.2 mph 8 mph 55.7% 0 in 137 W/m2
16:39 71.4 °F 55 °F 30.1 in North 3 mph 8 mph 56.4% 0 in 123 W/m2
16:44 71.1 °F 55.2 °F 30.1 in North 3 mph 5 mph 57% 0 in 118 W/m2
16:49 71.2 °F 55.2 °F 30.1 in North 2.4 mph 5 mph 57.2% 0 in 113 W/m2
16:54 71.1 °F 55.6 °F 30.1 in North 2 mph 5 mph 58.1% 0 in 107 W/m2
16:59 71.1 °F 55.6 °F 30.1 in North 2 mph 5 mph 58% 0 in 97 W/m2
17:04 71.1 °F 55.8 °F 30.1 in NNE 2 mph 5 mph 58.1% 0 in 90 W/m2
17:09 71.1 °F 55.8 °F 30.1 in NNE 2.6 mph 5 mph 58.7% 0 in 81 W/m2
17:14 70.7 °F 55.8 °F 30.1 in NNE 2.6 mph 5 mph 59.3% 0 in 69 W/m2
17:19 70.3 °F 55.8 °F 30.1 in NE 2 mph 5 mph 60% 0 in 56 W/m2
17:24 70.2 °F 55.9 °F 30.2 in NE 2 mph 5 mph 60.5% 0 in 49 W/m2
17:29 70 °F 56.1 °F 30.2 in NE 1.6 mph 5 mph 61.5% 0 in 44 W/m2
17:34 69.6 °F 56.1 °F 30.2 in NE 1 mph 3 mph 62% 0 in 37 W/m2
17:39 69.6 °F 56.5 °F 30.2 in NE 1.8 mph 4 mph 63% 0 in 32 W/m2
17:44 69.6 °F 56.3 °F 30.2 in NE 2 mph 4 mph 62.8% 0 in 23 W/m2
17:49 69.3 °F 56.3 °F 30.2 in NE 2 mph 4 mph 63.1% 0 in 16 W/m2
17:54 68.9 °F 56.3 °F 30.2 in NE 2 mph 4 mph 64% 0 in 9 W/m2
17:59 68 °F 54.1 °F 30.2 in ENE 3.2 mph 23 mph 61.1% 0 in 5 W/m2
18:04 64.6 °F 50.4 °F 30.2 in East 7.3 mph 23 mph 60% 0 in 0 W/m2
18:09 62.1 °F 49.6 °F 30.2 in East 8.6 mph 23 mph 63.8% 0 in 0 W/m2
18:14 60.6 °F 49.3 °F 30.2 in East 8 mph 17 mph 66.1% 0 in 0 W/m2
18:19 59.5 °F 48.7 °F 30.2 in East 8.2 mph 17 mph 67.7% 0 in 0 W/m2
18:24 58.5 °F 48.7 °F 30.2 in East 7.2 mph 17 mph 69.8% 0 in 0 W/m2
18:29 58.3 °F 48.7 °F 30.2 in East 7.2 mph 16 mph 70.9% 0 in 0 W/m2
18:34 58.1 °F 48.7 °F 30.2 in East 7.2 mph 16 mph 71% 0 in 0 W/m2
18:39 57.9 °F 48.7 °F 30.2 in East 7 mph 16 mph 71.5% 0 in 0 W/m2
18:44 57.6 °F 48.6 °F 30.2 in East 6.8 mph 15 mph 72% 0 in 0 W/m2
18:49 57.4 °F 48.4 °F 30.3 in East 7 mph 17 mph 72% 0 in 0 W/m2
18:54 57 °F 48.2 °F 30.3 in East 7 mph 18 mph 72.6% 0 in 0 W/m2
18:59 56.7 °F 48 °F 30.3 in East 7 mph 18 mph 73% 0 in 0 W/m2
19:04 56.5 °F 48 °F 30.3 in East 6 mph 18 mph 73.6% 0 in 0 W/m2
19:09 56.3 °F 48 °F 30.3 in ESE 5.6 mph 15 mph 74% 0 in 0 W/m2
19:14 55.9 °F 47.8 °F 30.3 in ESE 7 mph 15 mph 74.2% 0 in 0 W/m2
19:19 55.8 °F 47.8 °F 30.3 in East 7.8 mph 15 mph 75% 0 in 0 W/m2
19:24 55.6 °F 47.8 °F 30.3 in East 6.2 mph 16 mph 75.3% 0 in 0 W/m2
19:29 55.4 °F 48 °F 30.3 in East 5.2 mph 16 mph 76% 0 in 0 W/m2
19:34 55.2 °F 47.8 °F 30.3 in ESE 5.8 mph 16 mph 76% 0 in 0 W/m2
19:39 55.2 °F 48 °F 30.3 in East 5.8 mph 14 mph 76.7% 0 in 0 W/m2
19:44 55.2 °F 48 °F 30.3 in East 4.6 mph 12 mph 77% 0 in 0 W/m2
19:49 55.4 °F 48.2 °F 30.3 in ESE 4 mph 11 mph 77% 0 in 0 W/m2
19:54 55.4 °F 48.2 °F 30.3 in ESE 3.8 mph 9 mph 77% 0 in 0 W/m2
19:59 55.4 °F 48.2 °F 30.3 in ESE 3 mph 8 mph 77% 0 in 0 W/m2
20:04 55.2 °F 48.2 °F 30.3 in ESE 3.2 mph 10 mph 77.2% 0 in 0 W/m2
20:09 55.2 °F 48.4 °F 30.3 in East 4 mph 10 mph 77.8% 0 in 0 W/m2
20:14 55.2 °F 48.4 °F 30.3 in East 4.4 mph 10 mph 78% 0 in 0 W/m2
20:19 55.2 °F 48.6 °F 30.3 in ESE 2.9 mph 9 mph 78% 0 in 0 W/m2
20:24 55.2 °F 48.4 °F 30.3 in ESE 2 mph 11 mph 78% 0 in 0 W/m2
20:29 55 °F 48.4 °F 30.3 in East 3.4 mph 11 mph 78% 0 in 0 W/m2
20:34 55 °F 48.4 °F 30.3 in East 4.4 mph 11 mph 78% 0 in 0 W/m2
20:39 55 °F 48.4 °F 30.3 in East 4.2 mph 11 mph 78% 0 in 0 W/m2
20:44 55 °F 48.4 °F 30.3 in East 4 mph 11 mph 78% 0 in 0 W/m2
20:49 55 °F 48.4 °F 30.3 in East 4 mph 10 mph 78% 0 in 0 W/m2
20:54 54.9 °F 48.2 °F 30.3 in East 3.6 mph 10 mph 78% 0 in 0 W/m2
20:59 54.9 °F 48.2 °F 30.3 in East 3 mph 10 mph 78% 0 in 0 W/m2
21:04 54.9 °F 48.2 °F 30.3 in East 3 mph 10 mph 78% 0 in 0 W/m2
21:09 54.9 °F 48.2 °F 30.3 in East 2.2 mph 10 mph 78% 0 in 0 W/m2
21:14 54.9 °F 48.2 °F 30.3 in East 3.2 mph 9 mph 78.2% 0 in 0 W/m2
21:19 54.9 °F 48.4 °F 30.3 in East 4.4 mph 11 mph 78.9% 0 in 0 W/m2
21:24 54.7 °F 48.4 °F 30.4 in East 4 mph 11 mph 79% 0 in 0 W/m2
21:29 54.7 °F 48.2 °F 30.4 in East 3 mph 11 mph 79% 0 in 0 W/m2
21:34 54.7 °F 48.2 °F 30.4 in East 2 mph 7 mph 79% 0 in 0 W/m2
21:39 54.7 °F 48.2 °F 30.4 in East 2.2 mph 9 mph 78.9% 0 in 0 W/m2
21:44 54.5 °F 47.8 °F 30.4 in ESE 3 mph 10 mph 78% 0 in 0 W/m2
21:49 54.5 °F 47.8 °F 30.4 in ESE 3.2 mph 10 mph 78% 0 in 0 W/m2
21:54 54.5 °F 47.7 °F 30.4 in East 3 mph 10 mph 78% 0 in 0 W/m2
21:59 54.3 °F 47.7 °F 30.4 in East 3 mph 10 mph 78% 0 in 0 W/m2
22:04 54.1 °F 47.5 °F 30.4 in East 3.2 mph 10 mph 78% 0 in 0 W/m2
22:09 54 °F 47.5 °F 30.4 in East 4.5 mph 12 mph 78.3% 0 in 0 W/m2
22:14 54 °F 47.5 °F 30.4 in East 4.4 mph 12 mph 79% 0 in 0 W/m2
22:19 53.8 °F 47.5 °F 30.4 in East 5 mph 12 mph 79% 0 in 0 W/m2
22:24 53.8 °F 47.3 °F 30.4 in East 5 mph 12 mph 79% 0 in 0 W/m2
22:29 53.6 °F 47.1 °F 30.4 in East 5 mph 12 mph 79% 0 in 0 W/m2
22:34 53.4 °F 46.9 °F 30.4 in East 4.4 mph 10 mph 79% 0 in 0 W/m2
22:39 53.2 °F 46.9 °F 30.4 in East 4.8 mph 10 mph 79% 0 in 0 W/m2
22:44 53.2 °F 47.1 °F 30.4 in East 4.6 mph 10 mph 79.7% 0 in 0 W/m2
22:49 53.2 °F 47.1 °F 30.4 in East 3.8 mph 9 mph 80% 0 in 0 W/m2
22:54 53.1 °F 46.9 °F 30.4 in East 3 mph 9 mph 79.6% 0 in 0 W/m2
22:59 53.1 °F 46.8 °F 30.4 in East 4 mph 9 mph 79% 0 in 0 W/m2
23:04 53.1 °F 46.8 °F 30.4 in East 4 mph 8 mph 79% 0 in 0 W/m2
23:09 52.9 °F 46.6 °F 30.4 in East 3.6 mph 10 mph 79% 0 in 0 W/m2
23:14 52.9 °F 46.6 °F 30.4 in East 4 mph 10 mph 79% 0 in 0 W/m2
23:19 52.9 °F 46.6 °F 30.4 in East 3.4 mph 10 mph 79% 0 in 0 W/m2
23:24 52.9 °F 46.6 °F 30.4 in East 3 mph 9 mph 79% 0 in 0 W/m2
23:29 52.9 °F 46.6 °F 30.4 in East 3 mph 8 mph 79% 0 in 0 W/m2
23:34 52.9 °F 46.6 °F 30.4 in East 3 mph 8 mph 79% 0 in 0 W/m2
23:39 52.9 °F 46.6 °F 30.4 in East 3 mph 9 mph 79% 0 in 0 W/m2
23:44 52.7 °F 46.4 °F 30.4 in East 3 mph 9 mph 78.8% 0 in 0 W/m2
23:49 52.7 °F 46.4 °F 30.4 in ESE 3 mph 9 mph 79% 0 in 0 W/m2
23:54 52.7 °F 46.4 °F 30.4 in ESE 3 mph 8 mph 79% 0 in 0 W/m2
23:59 52.7 °F 46.4 °F 30.4 in ESE 2.2 mph 8 mph 79% 0 in 0 W/m2
Compliments of Weather Underground - 1.25 mb

Latitude S 35° 13' 00" Longitude E 149° 01' 22" Elevation 577 m
Page updated 23/09/2020 1:00:01 AM.
Powered by Cumulus MX v3.2.0 (3056)